Sunday, December 15, 2019, 7:18 AM GMT
Back to Local

CWFQ, Frelighsburg

Location: , , Canada Lat: 45.05
Local Time: 7:18 AM GMT ( 7:18 GMT) Lon: -72.833
Time Zone: GMT Elev: 498 ft

Show me the last for .
Show Coded

Time T Td Feel RH Dir Speed Gust Alt SLP Vis Weather Sky Remarks
2019-12-15 07:00 35 30 23 84 220° 10 21 - 29.04 0 Peak wind: 20 mph (18 kts) from 250° at 16 min
1-hr Precip Total: 0.01"
2019-12-15 06:00 37 33 26 86 210° 10 21 - 29.00 0 Peak wind: 24 mph (21 kts) from 240° at 49 min
2019-12-15 05:00 39 35 33 86 220° 9 - - 28.98 0 Peak wind: 20 mph (18 kts) from 190° at 42 min
1-hr Precip Total: 0.01"
2019-12-15 04:00 44 43 36 94 200° 8 17 - 28.94 0 Peak wind: 21 mph (19 kts) from 220° at 22 min
1-hr Precip Total: 0.01"
2019-12-15 03:00 45 44 40 95 220° 8 - - 28.93 0 1-hr Precip Total: 0.02"
2019-12-15 02:00 45 44 42 95 220° 6 - - 28.92 0 None
2019-12-15 01:00 49 47 46 91 160° 7 - - 28.92 0 1-hr Precip Total: 0.01"
2019-12-15 00:00 48 46 44 91 140° 8 - - 28.97 0 Pressure falling rapidly
2019-12-14 23:00 48 44 43 87 140° 9 - - 29.04 0 Pressure falling rapidly
2019-12-14 22:00 47 44 44 88 130° 6 - - 29.10 0 None
2019-12-14 21:00 47 44 45 86 130° 6 - - 29.15 0 Pressure falling rapidly
2019-12-14 20:00 48 44 47 84 140° 3 - - 29.21 0 None
2019-12-14 19:00 48 43 47 80 90° 5 - - 29.24 0 Pressure falling rapidly
2019-12-14 18:00 49 42 48 77 110° 3 - - 29.31 0 Pressure falling rapidly
2019-12-14 17:00 47 42 46 80 120° 5 - - 29.38 0 Pressure falling rapidly
2019-12-14 16:00 46 43 44 89 120° 5 - - 29.45 0 Pressure falling rapidly
2019-12-14 15:00 45 43 - 92 100° 2 - - 29.53 0 1-hr Precip Total: 0.04"
2019-12-14 14:00 45 42 42 90 100° 5 - - 29.58 0 1-hr Precip Total: 0.02"
2019-12-14 13:00 44 42 42 92 120° 5 - - 29.64 0 Pressure falling rapidly
1-hr Precip Total: 0.05"
2019-12-14 12:00 42 41 39 95 120° 5 - - 29.71 0 1-hr Precip Total: 0.04"
2019-12-14 11:00 42 41 40 95 120° 3 - - 29.76 0 1-hr Precip Total: 0.04"
2019-12-14 10:00 42 40 39 93 150° 5 - - 29.82 0 None
2019-12-14 09:00 41 40 36 93 140° 8 - - 29.86 0 1-hr Precip Total: 0.05"
2019-12-14 08:00 39 38 33 96 150° 8 - - 29.92 0 1-hr Precip Total: 0.02"

Support USWX by starting your Amazon purchase here.